Flight Track Log - Related Links

Times and Time Zones

All times are in EDT time to prevent confusion due to time zone crossing. See the N137TK flight status page for this flight to view local times or setup timezone preferences in your user account.


Time Position Orientation Groundspeed Altitude Reporting Facility
EDT Latitude Longitude Course Direction KTS MPH feet Rate Location/Type
Tue 11:26:15 AM 26.1372 -81.6608 354° North 169 194 4,900  Level Miami Center
Tue 11:27:16 AM 26.1756 -81.6414 24° Northeast 150 173 6,900 1,835 Climbing Miami Center
Tue 11:28:16 AM 26.2233 -81.6481 353° North 136 157 8,600 1,650 Climbing Miami Center
Tue 11:29:16 AM 26.2756 -81.6478 360° North 161 185 10,200 1,714 Climbing Miami Center
Tue 11:30:00 AM 26.5829 -81.8185 354° North  Level FlightAware Approximate
Tue 11:30:15 AM 26.3297 -81.6522 356° North 182 209 12,000  Level Miami Center
Tue 11:31:00 AM 26.6551 -81.8265 354° North  Level FlightAware Approximate
Tue 11:31:15 AM 26.3814 -81.6636 349° North 192 221 13,500  Level Miami Center
Tue 11:32:15 AM 26.4353 -81.6775 347° North 192 221 15,100 1,250 Climbing Miami Center
Tue 11:33:15 AM 26.4953 -81.6961 344° North 198 228 16,000 1,041 Climbing Miami Center
Tue 11:34:16 AM 26.5592 -81.7150 345° North 216 249 17,200 1,350 Climbing Miami Center
Tue 11:35:15 AM 26.6131 -81.7289 347° North 216 249 18,700 1,412 Climbing Miami Center
Tue 11:36:15 AM 26.6650 -81.7403 349° North 202 232 20,000 1,350 Climbing Miami Center
Tue 11:37:15 AM 26.7125 -81.7539 346° North 190 219 21,400 1,100 Climbing Miami Center
Tue 11:38:15 AM 26.7622 -81.7675 346° North 178 205 22,200 900 Climbing Miami Center
Tue 11:39:15 AM 26.8119 -81.7789 348° North 178 205 23,200 950 Climbing Miami Center
Tue 11:40:15 AM 26.8614 -81.7928 346° North 184 212 24,100 900 Climbing Miami Center
Tue 11:41:15 AM 26.9158 -81.7881 North 184 212 25,000 900 Climbing Miami Center
Tue 11:42:15 AM 26.9706 -81.7739 13° North 189 217 25,900 900 Climbing Miami Center
Tue 11:43:15 AM 27.0256 -81.7578 15° North 194 223 26,800 550 Climbing Miami Center
Tue 11:44:15 AM 27.0803 -81.7436 13° North 194 223 27,000 100 Climbing Miami Center
Tue 11:45:15 AM 27.1392 -81.7275 14° North 216 249 27,000  Level Miami Center
Tue 11:46:15 AM 27.2089 -81.7069 15° North 241 277 27,000  Level Miami Center
Tue 11:47:15 AM 27.2889 -81.6869 13° North 255 293 27,000  Level Miami Center
Tue 11:48:15 AM 27.3647 -81.6644 15° North 271 312 27,000  Level Miami Center
Tue 11:49:15 AM 27.4403 -81.6467 12° North 276 318 27,000  Level Miami Center
Tue 11:50:15 AM 27.5081 -81.6236 17° North 281 323 27,000  Level Miami Center
Tue 11:51:15 AM 27.5942 -81.6017 13° North 281 323 27,000  Level Miami Center
Tue 11:52:15 AM 27.6681 -81.5811 14° North 281 323 27,000  Level Miami Center
Tue 11:53:16 AM 27.7458 -81.5608 13° North 281 323 27,000  Level Miami Center
Tue 11:54:16 AM 27.8133 -81.5403 15° North 281 323 27,000  Level Miami Center
Tue 11:55:15 AM 27.8953 -81.5178 14° North 281 323 27,000  Level Miami Center
Tue 11:56:15 AM 27.9733 -81.4975 13° North 281 323 27,000  Level Miami Center
Tue 11:57:15 AM 28.0492 -81.4747 15° North 281 323 27,000  Level Miami Center
Tue 11:58:15 AM 28.1269 -81.4519 14° North 281 323 27,000  Level Miami Center
Tue 11:59:16 AM 28.2050 -81.4292 14° North 281 323 27,000  Level Miami Center
Tue 12:00:15 PM 28.2661 -81.4128 13° North 281 323 27,000  Level Miami Center
Tue 12:01:28 PM 28.3789 -81.3850 12° North 300 345 27,000  Level Jacksonville Center
Tue 12:02:28 PM 28.4581 -81.3625 14° North 294 338 27,000  Level Jacksonville Center
Tue 12:03:28 PM 28.5350 -81.3425 13° North 289 333 27,000  Level Jacksonville Center
Tue 12:04:28 PM 28.6017 -81.3414 North 282 325 27,000  Level Jacksonville Center
Tue 12:05:28 PM 28.6769 -81.3497 354° North 268 308 27,000  Level Jacksonville Center
Tue 12:06:28 PM 28.7500 -81.3558 356° North 268 308 27,000  Level Jacksonville Center
Tue 12:07:28 PM 28.8275 -81.3639 355° North 268 308 27,000  Level Jacksonville Center
Tue 12:08:28 PM 28.8986 -81.3725 354° North 268 308 27,000  Level Jacksonville Center
Tue 12:09:28 PM 28.9736 -81.3783 356° North 268 308 27,000  Level Jacksonville Center
Tue 12:10:28 PM 29.0489 -81.3867 354° North 268 308 27,000  Level Jacksonville Center
Tue 12:11:28 PM 29.1242 -81.3928 356° North 273 314 27,000  Level Jacksonville Center
Tue 12:12:28 PM 29.1994 -81.4011 354° North 273 314 27,000  Level Jacksonville Center
Tue 12:13:28 PM 29.2747 -81.4094 354° North 273 314 27,000  Level Jacksonville Center
Tue 12:14:28 PM 29.3497 -81.4156 356° North 273 314 27,000  Level Jacksonville Center
Tue 12:15:28 PM 29.4314 -81.4261 354° North 273 314 27,000  Level Jacksonville Center
Tue 12:16:28 PM 29.5086 -81.4322 356° North 273 314 27,000  Level Jacksonville Center
Tue 12:17:28 PM 29.5839 -81.4383 356° North 273 314 27,000  Level Jacksonville Center
Tue 12:18:28 PM 29.6592 -81.4467 355° North 273 314 27,000  Level Jacksonville Center
Tue 12:19:28 PM 29.7344 -81.4528 356° North 273 314 27,000  Level Jacksonville Center
Tue 12:20:28 PM 29.8097 -81.4589 356° North 273 314 27,000  Level Jacksonville Center
Tue 12:21:28 PM 29.8847 -81.4672 354° North 273 314 27,000  Level Jacksonville Center
Tue 12:22:28 PM 29.9622 -81.4756 355° North 273 314 27,000  Level Jacksonville Center
Tue 12:23:28 PM 30.0375 -81.4817 356° North 273 314 27,000  Level Jacksonville Center
Tue 12:24:28 PM 30.1125 -81.4878 356° North 273 314 27,000  Level Jacksonville Center
Tue 12:25:28 PM 30.1858 -81.4964 354° North 273 314 27,000  Level Jacksonville Center
Tue 12:26:28 PM 30.2611 -81.5050 354° North 273 314 27,000  Level Jacksonville Center
Tue 12:27:28 PM 30.3364 -81.5086 358° North 273 314 27,000  Level Jacksonville Center
Tue 12:28:28 PM 30.4072 -81.4981 North 273 314 27,000  Level Jacksonville Center
Tue 12:29:28 PM 30.4842 -81.4872 North 273 314 27,000  Level Jacksonville Center
Tue 12:30:28 PM 30.5614 -81.4742 North 273 314 27,000  Level Jacksonville Center
Tue 12:31:28 PM 30.6383 -81.4608 North 273 314 27,000  Level Jacksonville Center
Tue 12:32:28 PM 30.7156 -81.4475 North 273 314 27,000  Level Jacksonville Center
Tue 12:33:28 PM 30.7906 -81.4344 North 273 314 27,000  Level Jacksonville Center
Tue 12:34:28 PM 30.8678 -81.4211 North 273 314 27,000  Level Jacksonville Center
Tue 12:35:28 PM 30.9447 -81.4103 North 273 314 27,000  Level Jacksonville Center
Tue 12:36:28 PM 31.0239 -81.3944 10° North 273 314 27,000  Level Jacksonville Center
Tue 12:37:28 PM 31.0989 -81.3836 North 273 314 27,000  Level Jacksonville Center
Tue 12:38:28 PM 31.1761 -81.3700 North 273 314 27,000  Level Jacksonville Center
Tue 12:39:28 PM 31.2553 -81.3542 10° North 273 314 27,000  Level Jacksonville Center
Tue 12:40:28 PM 31.3322 -81.3408 North 273 314 27,000  Level Jacksonville Center
Tue 12:41:28 PM 31.4178 -81.3272 North 273 314 27,000  Level Jacksonville Center
Tue 12:42:28 PM 31.4886 -81.3139 North 273 314 27,000  Level Jacksonville Center
Tue 12:43:28 PM 31.5761 -81.3003 North 278 320 27,000  Level Jacksonville Center
Tue 12:44:28 PM 31.6450 -81.2892 North 278 320 27,000  Level Jacksonville Center
Tue 12:45:28 PM 31.7303 -81.2731 North 278 320 27,000  Level Jacksonville Center
Tue 12:46:28 PM 31.8072 -81.2594 North 278 320 27,000  Level Jacksonville Center
Tue 12:47:28 PM 31.8739 -81.2486 North 272 313 27,000  Level Jacksonville Center
Tue 12:48:28 PM 31.9617 -81.2347 North 278 320 27,000  Level Jacksonville Center
Tue 12:49:28 PM 32.0364 -81.2211 North 273 314 27,000  Level Jacksonville Center
Tue 12:50:28 PM 32.1136 -81.2075 North 278 320 27,000  Level Jacksonville Center
Tue 12:51:28 PM 32.1906 -81.1839 15° North 273 314 27,000  Level Jacksonville Center
Tue 12:52:28 PM 32.2631 -81.1506 21° North 278 320 27,000  Level Jacksonville Center
Tue 12:53:28 PM 32.3358 -81.1222 18° North 283 326 27,000  Level Jacksonville Center
Tue 12:54:28 PM 32.4083 -81.0939 18° North 283 326 27,000  Level Jacksonville Center
Tue 12:55:28 PM 32.4833 -81.0653 18° North 277 319 27,000  Level Jacksonville Center
Tue 12:56:28 PM 32.5558 -81.0317 21° North 277 319 27,000  Level Jacksonville Center
Tue 12:57:28 PM 32.6283 -81.0031 18° North 277 319 27,000  Level Jacksonville Center
Tue 12:58:28 PM 32.7011 -80.9744 18° North 271 312 27,000  Level Jacksonville Center
Tue 12:59:28 PM 32.7717 -80.9433 20° North 266 306 27,000  Level Jacksonville Center
Tue 01:00:28 PM 32.8419 -80.9144 19° North 266 306 27,000  Level Jacksonville Center
Tue 01:01:28 PM 32.9147 -80.8833 20° North 266 306 27,000  Level Jacksonville Center
Tue 01:02:28 PM 32.9853 -80.8544 19° North 266 306 27,000  Level Jacksonville Center
Tue 01:03:28 PM 33.0578 -80.8256 18° North 266 306 27,000  Level Jacksonville Center
Tue 01:04:28 PM 33.1283 -80.7967 19° North 266 306 27,000  Level Jacksonville Center
Tue 01:05:28 PM 33.1967 -80.7678 19° North 266 306 27,000  Level Jacksonville Center
Tue 01:06:28 PM 33.2692 -80.7386 19° North 266 306 27,000  Level Jacksonville Center
Tue 01:07:28 PM 33.3397 -80.7072 20° North 266 306 27,000  Level Jacksonville Center
Tue 01:08:28 PM 33.4081 -80.6781 20° North 266 306 27,000  Level Jacksonville Center
Tue 01:09:28 PM 33.4783 -80.6464 21° North 266 306 27,000  Level Jacksonville Center
Tue 01:10:28 PM 33.5467 -80.6197 18° North 266 306 27,000  Level Jacksonville Center
Tue 01:11:28 PM 33.6172 -80.5906 19° North 266 306 27,000  Level Jacksonville Center
Tue 01:12:28 PM 33.6856 -80.5614 20° North 266 306 27,000  Level Jacksonville Center
Tue 01:13:28 PM 33.7539 -80.5294 21° North 266 306 27,000  Level Jacksonville Center
Tue 01:14:28 PM 33.8222 -80.5028 18° North 266 306 27,000  Level Jacksonville Center
Tue 01:15:28 PM 33.8883 -80.4733 20° North 266 306 27,000  Level Jacksonville Center
Tue 01:16:28 PM 33.9567 -80.4439 20° North 266 306 27,000  Level Jacksonville Center
Tue 01:17:28 PM 34.0250 -80.4144 20° North 266 306 27,000  Level Jacksonville Center
Tue 01:18:28 PM 34.0953 -80.3875 18° North 266 306 27,000  Level Jacksonville Center
Tue 01:19:28 PM 34.1614 -80.3578 20° North 261 300 27,000  Level Jacksonville Center
Tue 01:20:28 PM 34.2297 -80.3258 21° North 261 300 27,000  Level Jacksonville Center
Tue 01:21:28 PM 34.3000 -80.2986 18° North 261 300 27,000  Level Jacksonville Center
Tue 01:22:28 PM 34.3661 -80.2664 22° Northeast 261 300 27,000  Level Jacksonville Center
Tue 01:23:28 PM 34.4364 -80.2367 19° North 261 300 27,000  Level Jacksonville Center
Tue 01:25:25 PM 34.5572 -80.1867 19° North 263 303 27,000  Level Washington Center
Tue 01:26:26 PM 34.6336 -80.1506 21° North 258 297 27,000  Level Washington Center
Tue 01:27:26 PM 34.7036 -80.1192 20° North 258 297 27,000  Level Washington Center
Tue 01:28:27 PM 34.7717 -80.0900 19° North 258 297 27,000  Level Washington Center
Tue 01:29:27 PM 34.8417 -80.0558 22° Northeast 258 297 27,000  Level Washington Center
Tue 01:30:27 PM 34.8969 -80.0311 20° North 258 297 27,000  Level Washington Center
Tue 01:31:25 PM 34.9836 -79.9953 19° North 265 305 27,000  Level Washington Center
Tue 01:32:26 PM 35.0536 -79.9661 19° North 265 305 27,000  Level Washington Center
Tue 01:33:27 PM 35.1217 -79.9317 22° Northeast 270 311 27,000  Level Washington Center
Tue 01:34:27 PM 35.1939 -79.9000 20° North 270 311 27,000  Level Washington Center
Tue 01:35:25 PM 35.2617 -79.8681 21° North 270 311 27,000  Level Washington Center
Tue 01:36:26 PM 35.3339 -79.8361 20° North 270 311 27,000  Level Washington Center
Tue 01:37:28 PM 35.4017 -79.8017 22° Northeast 270 311 27,000  Level Washington Center
Tue 01:38:26 PM 35.4736 -79.7722 18° North 270 311 27,000  Level Washington Center
Tue 01:39:27 PM 35.5458 -79.7403 20° North 270 311 27,000  Level Washington Center
Tue 01:40:25 PM 35.6117 -79.7053 23° Northeast 277 319 27,000  Level Washington Center
Tue 01:41:25 PM 35.6922 -79.6686 20° North 272 313 27,000  Level Washington Center
Tue 01:42:27 PM 35.7536 -79.6411 20° North 272 313 27,000  Level Washington Center
Tue 01:43:27 PM 35.8322 -79.6042 21° North 272 313 27,000  Level Washington Center
Tue 01:44:25 PM 35.8956 -79.5767 19° North 272 313 27,000  Level Washington Center
Tue 01:45:25 PM 35.9761 -79.5422 19° North 266 306 27,000  Level Washington Center
Tue 01:46:26 PM 36.0375 -79.5144 20° North 266 306 27,000  Level Washington Center
Tue 01:47:26 PM 36.1158 -79.4772 21° North 272 313 27,000  Level Washington Center
Tue 01:48:27 PM 36.1794 -79.4494 19° North 272 313 27,000  Level Washington Center
Tue 01:49:27 PM 36.2597 -79.4172 18° North 272 313 27,000  Level Washington Center
Tue 01:50:25 PM 36.3319 -79.3822 21° North 272 313 27,000  Level Washington Center
Tue 01:51:25 PM 36.3953 -79.3517 21° North 272 313 27,000  Level Washington Center
Tue 01:52:26 PM 36.4675 -79.3189 20° North 272 313 27,000  Level Washington Center
Tue 01:53:27 PM 36.5394 -79.2861 20° North 272 313 27,000  Level Washington Center
Tue 01:54:27 PM 36.6197 -79.2486 21° North 272 313 27,000  Level Washington Center
Tue 01:55:25 PM 36.6917 -79.2183 19° North 272 313 27,000  Level Washington Center
Tue 01:56:25 PM 36.7636 -79.1828 22° Northeast 272 313 27,000  Level Washington Center
Tue 01:57:26 PM 36.8333 -79.1550 18° North 272 313 27,000  Level Washington Center
Tue 01:58:27 PM 36.9031 -79.1217 21° North 272 313 27,000  Level Washington Center
Tue 01:59:25 PM 36.9772 -79.0886 20° North 272 313 27,000  Level Washington Center
Tue 02:00:25 PM 37.0492 -79.0531 22° Northeast 272 313 27,000  Level Washington Center
Tue 02:01:26 PM 37.1314 -79.0178 19° North 272 313 27,000  Level Washington Center
Tue 02:02:27 PM 37.2014 -78.9842 21° North 272 313 27,000  Level Washington Center
Tue 02:03:25 PM 37.2731 -78.9508 20° North 272 313 27,000  Level Washington Center
Tue 02:04:25 PM 37.3386 -78.9197 21° North 272 313 27,000  Level Washington Center
Tue 02:05:26 PM 37.4106 -78.8889 19° North 272 313 27,000  Level Washington Center
Tue 02:06:26 PM 37.4822 -78.8553 20° North 272 313 27,000  Level Washington Center
Tue 02:07:27 PM 37.5625 -78.8169 21° North 272 313 27,000 -50 Level Washington Center
Tue 02:08:25 PM 37.6344 -78.7858 19° North 272 313 26,900 -305 Descending Washington Center
Tue 02:09:25 PM 37.7083 -78.7522 20° North 272 313 26,400 -446 Descending Washington Center
Tue 02:10:26 PM 37.7842 -78.7161 21° North 272 313 26,000 -443 Descending Washington Center
Tue 02:11:27 PM 37.8539 -78.6847 20° North 277 319 25,500 -504 Descending Washington Center
Tue 02:12:25 PM 37.9300 -78.6483 21° North 282 325 25,000 -252 Descending Washington Center
Tue 02:13:26 PM 38.0058 -78.6144 19° North 287 330 25,000  Level Washington Center
Tue 02:14:27 PM 38.0861 -78.5756 21° North 282 325 25,000  Level Washington Center
Tue 02:15:25 PM 38.1578 -78.5442 19° North 276 318 25,000  Level Washington Center
Tue 02:16:25 PM 38.2169 -78.5147 21° North 264 304 25,000  Level Washington Center
Tue 02:17:26 PM 38.2867 -78.4803 21° North 264 304 25,000  Level Washington Center
Tue 02:18:26 PM 38.3583 -78.4461 20° North 264 304 25,000  Level Washington Center
Tue 02:19:27 PM 38.4278 -78.4142 20° North 264 304 25,000  Level Washington Center
Tue 02:20:27 PM 38.4994 -78.3800 20° North 264 304 25,000  Level Washington Center
Tue 02:21:26 PM 38.5653 -78.3292 31° Northeast 264 304 25,000  Level Washington Center
Tue 02:22:26 PM 38.6292 -78.2783 32° Northeast 269 310 25,000  Level Washington Center
Tue 02:23:27 PM 38.6950 -78.2222 34° Northeast 275 316 25,000 -252 Level Washington Center
Tue 02:24:25 PM 38.7606 -78.1714 31° Northeast 280 322 24,500 -1,059 Descending Washington Center
Tue 02:25:26 PM 38.8367 -78.1314 22° Northeast 280 322 22,900 -1,525 Descending Washington Center
Tue 02:26:27 PM 38.9144 -78.0914 22° Northeast 291 335 21,400 -958 Descending Washington Center
Tue 02:27:25 PM 38.9883 -78.0514 23° Northeast 291 335 21,000 -203 Descending Washington Center
Tue 02:28:25 PM 39.0558 -78.0161 22° Northeast 276 318 21,000  Level Washington Center
Tue 02:29:26 PM 39.1253 -77.9783 23° Northeast 271 312 21,000 -590 Level Washington Center
Tue 02:30:27 PM 39.1969 -77.9403 22° Northeast 271 312 19,800 -1,361 Descending Washington Center
Tue 02:31:25 PM 39.2728 -77.9000 22° Northeast 276 318 18,300 -1,361 Descending Washington Center
Tue 02:32:26 PM 39.3569 -77.8544 23° Northeast 282 325 17,100 -1,328 Descending Washington Center
Tue 02:33:27 PM 39.4328 -77.8111 24° Northeast 288 331 15,600 -1,488 Descending Washington Center
Tue 02:34:27 PM 39.5086 -77.7731 21° North 293 337 14,100 -1,525 Descending Washington Center
Tue 02:35:25 PM 39.5822 -77.7322 23° Northeast 293 337 12,600 -1,513 Descending Washington Center
Tue 02:36:26 PM 39.6536 -77.6939 22° Northeast 287 330 11,100 -1,475 Descending Washington Center
Tue 02:37:27 PM 39.7272 -77.6528 23° Northeast 287 330 9,600 -1,475 Descending Washington Center
Tue 02:39:00 PM 39.8282 -77.5884 38° Northeast  Level FlightAware Approximate
Tue 02:46:00 PM 40.1833 -77.1667 37° Northeast  Level FlightAware Approximate
Tue 02:47:00 PM 40.1879 -77.1743 37° Northeast  Level Estimated
Tue 02:48:00 PM 40.1879 -77.1743 37° Northeast  Level Estimated

Login

Don't have an account? Register now (free) for customized features, flight alerts, and more!